Terminal Aerodrome Forecast
Issued by NWS

Home | Current Version | Previous Version | Text Only | Print | Product List | Glossary On
Versions: 1 2 3 4 5 6 7 8 9 10 11 12 13 14 15
000
FTUS46 KMTR 011700
TAFSTS
TAF
KSTS 011722Z 0118/0218 00000KT P6SM SKC
     FM012100 20008KT P6SM FEW040
     FM020300 VRB03KT P6SM FEW030
     FM021000 00000KT 1/4SM FG VV001
     FM021600 00000KT P6SM BKN100=

USA.gov is the U.S. government's official web portal to all federal, state and local government web resources and services.